• Join FlightAware (Why Join?)
  • Login
  • US Flag 
06:20PM EST


 

Airport Tracker/Info


-or-


 

Live Flight TrackerFlight Track Log ✈ AAY805 ✈ 20-Apr-2014 ✈ KCHA - KPIE

Flight Track Log - Related Links

Times and Time Zones

All times are in EDT time to prevent confusion due to time zone crossing. See the AAY805 flight status page for this flight to view local times or setup timezone preferences in your user account.

Time Position Orientation Groundspeed Altitude Reporting Facility
EDT Latitude Longitude Course Direction KTS MPH feet Rate Location/Type
09:13AM 34.9242 -85.1864 158° South 251 289 4,400  Level Atlanta Center
09:14AM 34.8642 -85.1500 154° Southeast 271 312 7,000 2,700 Climbing Atlanta Center
09:15AM 34.7914 -85.1086 155° Southeast 271 312 9,900 2,220 Climbing Atlanta Center
09:17AM 34.5685 -84.9259 158° South  Level FlightAware Approximate
09:18AM 34.4713 -84.8773 158° South  Level FlightAware Approximate
09:21AM 34.1969 -84.7609 154° Southeast 429 494 22,300  Level FlightAware ADS-B (KDZJ)
09:21AM 34.1231 -84.7183 154° Southeast 431 496 23,400 1,620 Climbing FlightAware ADS-B (KDZJ)
09:22AM 34.0517 -84.6771 154° Southeast 444 511 24,500 1,020 Climbing FlightAware ADS-B (KDZJ)
09:23AM 34.0056 -84.6553 154° Southeast 438 504 25,000 1,080 Climbing Atlanta Center
09:24AM 33.8911 -84.5894 154° Southeast 444 511 26,600 1,440 Climbing Atlanta Center
09:25AM 33.7600 -84.5136 154° Southeast 456 525 27,900 1,200 Climbing Atlanta Center
09:26AM 33.6347 -84.4853 169° South 460 529 29,100 1,140 Climbing Atlanta Center
09:27AM 33.5139 -84.4675 173° South 481 554 30,200 1,140 Climbing Atlanta Center
09:28AM 33.3678 -84.4442 172° South 486 559 31,400 1,320 Climbing Atlanta Center
09:29AM 33.2342 -84.4239 173° South 486 559 32,900 1,440 Climbing Atlanta Center
09:30AM 33.1008 -84.4033 173° South 481 554 34,300 1,200 Climbing Atlanta Center
09:31AM 32.9714 -84.3831 173° South 481 554 35,400 1,140 Climbing Atlanta Center
09:32AM 32.8419 -84.3653 173° South 481 554 36,600 780 Climbing Atlanta Center
09:33AM 32.7147 -84.3400 171° South 481 554 37,000 180 Climbing Atlanta Center
09:34AM 32.5833 -84.3200 173° South 475 547 37,000  Level Atlanta Center
09:35AM 32.4561 -84.2997 172° South 475 547 37,000  Level Atlanta Center
09:36AM 32.3225 -84.2797 173° South 475 547 37,000  Level Atlanta Center
09:38AM 32.0947 -84.2439 172° South 495 570 37,000  Level Jacksonville Center
09:39AM 31.9611 -84.2222 172° South 490 564 37,000  Level Jacksonville Center
09:40AM 31.8300 -84.2008 172° South 485 558 37,000  Level Jacksonville Center
09:41AM 31.6964 -84.1819 173° South 485 558 37,000  Level Jacksonville Center
09:42AM 31.5631 -84.1606 172° South 485 558 37,000  Level Jacksonville Center
09:43AM 31.4297 -84.1392 172° South 485 558 37,000  Level Jacksonville Center
09:44AM 31.2983 -84.1203 173° South 480 552 37,000  Level Jacksonville Center
09:45AM 31.1628 -84.0992 172° South 480 552 37,000  Level Jacksonville Center
09:46AM 31.0336 -84.0781 172° South 480 552 37,000  Level Jacksonville Center
09:47AM 30.8833 -84.0569 173° South 488 562 37,000  Level Jacksonville Center
09:48AM 30.7500 -84.0358 172° South 488 562 37,000  Level Jacksonville Center
09:49AM 30.6311 -84.0175 172° South 488 562 37,000  Level Jacksonville Center
09:50AM 30.4894 -83.9942 172° South 477 549 37,000  Level Jacksonville Center
09:51AM 30.3497 -83.9758 174° South 482 555 37,000  Level Jacksonville Center
09:52AM 30.2183 -83.9550 172° South 482 555 37,000  Level Jacksonville Center
09:53AM 30.0828 -83.9344 173° South 487 560 37,000  Level Jacksonville Center
09:54AM 29.9450 -83.9161 173° South 492 566 37,000  Level Jacksonville Center
09:55AM 29.8094 -83.8883 170° South 492 566 37,000  Level Jacksonville Center
09:56AM 29.6828 -83.8106 152° Southeast 497 572 37,000 -900 Level Jacksonville Center
09:57AM 29.5561 -83.7258 150° Southeast 507 583 35,200 -2,640 Descending Jacksonville Center
09:58AM 29.4356 -83.6483 151° Southeast 513 590 31,800 -3,360 Descending Jacksonville Center
09:59AM 29.3147 -83.5714 151° Southeast 502 578 28,500 -2,520 Descending Jacksonville Center
10:00AM 29.2003 -83.4969 150° Southeast 489 563 26,800 -1,860 Descending Jacksonville Center
10:01AM 29.0942 -83.4297 151° Southeast 470 541 24,800 -2,100 Descending Jacksonville Center
10:02AM 28.9900 -83.3650 151° Southeast 445 512 22,600 -2,100 Descending Jacksonville Center
10:03AM 28.9006 -83.3075 151° Southeast 423 487 20,600 -1,620 Descending Jacksonville Center
10:04AM 28.8006 -83.2433 151° Southeast 411 473 19,400 -1,440 Descending Jacksonville Center
10:05AM 28.7006 -83.1814 151° Southeast 411 473 17,800 -1,800 Descending Jacksonville Center
10:06AM 28.6000 -83.1167 151° Southeast 402 463 16,100 -1,860 Descending Tampa TRACON
10:06AM 28.5500 -83.0833 150° Southeast 396 456 15,100 -1,380 Descending Tampa TRACON
10:07AM 28.4500 -83.0333 156° South 379 436 13,900 -1,440 Descending Tampa TRACON
10:08AM 28.3667 -82.9667 145° Southeast 351 404 12,300 -1,260 Descending Tampa TRACON
10:09AM 28.3000 -82.9167 147° Southeast 318 366 11,600 -1,500 Descending Tampa TRACON
10:10AM 28.2167 -82.8833 161° South 306 352 9,500 -2,220 Descending Tampa TRACON
10:11AM 28.1333 -82.8667 170° South 293 337 7,200 -2,100 Descending Tampa TRACON
10:12AM 28.0667 -82.8500 168° South 288 331 5,300 -1,200 Descending Tampa TRACON
10:13AM 28.0000 -82.8333 168° South 281 323 5,000 -720 Descending Tampa TRACON
10:14AM 27.9167 -82.8000 161° South 268 308 4,000 -1,560 Descending Tampa TRACON
10:15AM 27.8500 -82.7833 168° South 254 292 1,900 -1,200 Descending Tampa TRACON
10:16AM 27.8000 -82.7500 149° Southeast 215 247 1,600 -180 Descending Tampa TRACON
10:17AM 27.8000 -82.6833 90° East 164 189 1,600 -180 Level Tampa TRACON
10:18AM 27.8333 -82.6833 360° North 122 140 1,300 -480 Descending Tampa TRACON
10:19AM 27.8667 -82.6833 360° North 126 145 700 -600 Descending Tampa TRACON